Pagrindinis puslapis
METAR-TAF:

METAR-TAF

Oro uostai :

Broome, Australija

platuma: 17-57S, ilguma: 122-13E, Aukštis: 17 m

Dabartinis oras

Ataskaita buvo paskelbta 48 minutes, ne 00:00 UTC
Ramus vėjas
Temperatūra 30°C
Drėgmė 62%
Slėgis 1007 hPa
Matomumas 10 km arba daugiau

METAR: YBRM 260000Z AUTO 00000KT 9999 // NCD 30/22 Q1007

Laikas: 08:48 (00:48 UTC)

Prognozė

Ataskaita buvo paskelbta 1 valandą ir 38 minutes, ne 23:10 UTC
Prognozė galioja nuo 26 metu 00 UTC su 27 metu 00 UTC
Vėjas 10 kt iš Vakarų
Matomumas 10 km arba daugiau
Mažai debesys ne aukštis 2500 ft
Nuo 26 metu 1200 UTC
Vėjas 8 kt iš Šiaurės Vakarų
Matomumas 10 km arba daugiau
Mažai debesys ne aukštis 1500 ft

TAF: YBRM 252310Z 2600/2700 27010KT 9999 FEW025 FM261200 32008KT 9999 FEW015

Orai ataskaitas ir orų prognozės (METAR, TAF).

turimą stotys yra geltonos ir raudonos taškus žemėlapyje.

Perkelti pele per norėdami pamatyti stoties vardą.

Tada spustelėkite, norėdami matyti oro stebėjimo ir prognozės.

Norėdami pakeisti žemėlapį: spustelėkite ant žalios mygtukų su juodo kryžiaus žemyn,; žalią mygtuką su brūkšneliu, jei norite nutolinti; arba žalių rodyklių gretimoms žemėlapius.


METAR-TAF: